Flight Track Log - Related Links

Times and Time Zones

All times are in EDT time to prevent confusion due to time zone crossing. See the ASQ6041 flight status page for this flight to view local times or setup timezone preferences in your user account.

Time Position Orientation Groundspeed Altitude Reporting Facility
EDT Latitude Longitude Course Direction KTS MPH feet Rate Location/Type
Wed 01:47:57 PM 40.7597 -96.8008 210° Southwest 208 239 4,900  Level Minneapolis Center
Wed 01:48:52 PM 40.7125 -96.8494 218° Southwest 250 288 7,000 2,125 Climbing Minneapolis Center
Wed 01:50:21 PM 40.6353 -96.9389 221° Southwest 264 304 10,000 1,430 Climbing Minneapolis Center
Wed 01:51:00 PM 40.8142 -97.2888 253° West  Level FlightAware Approximate
Wed 01:51:23 PM 40.5997 -97.0478 247° West 336 387 10,600  Level Minneapolis Center
Wed 01:52:00 PM 40.7881 -97.4179 257° West  Level FlightAware Approximate
Wed 01:52:25 PM 40.6000 -97.1783 270° West 354 407 12,800  Level Minneapolis Center
Wed 01:53:27 PM 40.6003 -97.3056 270° West 351 404 15,100 2,129 Climbing Minneapolis Center
Wed 01:54:29 PM 40.6019 -97.4361 271° West 346 398 17,200 1,824 Climbing Minneapolis Center
Wed 01:55:32 PM 40.6017 -97.5619 270° West 345 397 18,900 1,728 Climbing Minneapolis Center
Wed 01:56:34 PM 40.6031 -97.6892 271° West 346 398 20,800 1,790 Climbing Minneapolis Center
Wed 01:57:36 PM 40.6036 -97.8422 270° West 348 400 22,600 1,452 Climbing Minneapolis Center
Wed 01:58:38 PM 40.6047 -97.9739 271° West 355 409 23,800 1,161 Climbing Minneapolis Center
Wed 01:59:40 PM 40.6050 -98.1103 270° West 367 422 25,000 1,161 Climbing Minneapolis Center
Wed 02:00:42 PM 40.6233 -98.2456 280° West 373 429 26,200 1,306 Climbing Minneapolis Center
Wed 02:01:44 PM 40.6453 -98.3792 282° West 373 429 27,700 1,536 Climbing Minneapolis Center
Wed 02:02:47 PM 40.6656 -98.5111 281° West 369 425 29,400 1,536 Climbing Minneapolis Center
Wed 02:03:49 PM 40.6622 -98.6442 268° West 364 419 30,900 1,355 Climbing Minneapolis Center
Wed 02:04:51 PM 40.6708 -98.8039 274° West 363 418 32,200 1,113 Climbing Minneapolis Center
Wed 02:05:53 PM 40.6808 -98.9408 276° West 369 425 33,200 871 Climbing Minneapolis Center
Wed 02:06:55 PM 40.6906 -99.0806 275° West 377 434 34,000 500 Climbing Minneapolis Center
Wed 02:07:29 PM 40.6964 -99.1686 275° West 389 448 34,000  Level Denver Center
Wed 02:08:31 PM 40.7061 -99.3231 275° West 419 482 34,000  Level Denver Center
Wed 02:09:33 PM 40.7178 -99.4847 275° West 438 504 34,000  Level Denver Center
Wed 02:10:35 PM 40.7278 -99.6461 275° West 440 506 34,000  Level Denver Center
Wed 02:11:37 PM 40.7378 -99.8067 275° West 439 505 34,000  Level Denver Center
Wed 02:12:39 PM 40.7475 -99.9700 275° West 439 505 34,000  Level Denver Center
Wed 02:13:41 PM 40.7586 -100.1475 275° West 437 503 34,000  Level Denver Center
Wed 02:14:43 PM 40.7664 -100.2992 274° West 434 499 34,000  Level Denver Center
Wed 02:15:45 PM 40.7772 -100.4775 275° West 435 501 34,000  Level Denver Center
Wed 02:16:47 PM 40.7828 -100.6283 273° West 429 494 34,000  Level Denver Center
Wed 02:17:49 PM 40.7572 -100.7972 259° West 481 554 34,000  Level Denver Center
Wed 02:18:51 PM 40.7344 -100.9728 260° West 437 503 34,000  Level Denver Center
Wed 02:19:54 PM 40.7089 -101.1256 258° West 443 510 34,000  Level Denver Center
Wed 02:20:56 PM 40.6781 -101.3033 257° West 446 513 34,000  Level Denver Center
Wed 02:21:58 PM 40.6519 -101.4561 257° West 447 514 34,000  Level Denver Center
Wed 02:23:00 PM 40.6203 -101.6331 257° West 445 512 34,000  Level Denver Center
Wed 02:24:02 PM 40.5928 -101.7844 257° West 445 512 34,000  Level Denver Center
Wed 02:25:04 PM 40.5617 -101.9594 257° West 443 510 34,000  Level Denver Center
Wed 02:26:06 PM 40.5331 -102.1094 256° West 442 509 34,000  Level Denver Center
Wed 02:27:08 PM 40.4986 -102.2833 255° West 441 507 34,000  Level Denver Center
Wed 02:28:10 PM 40.4722 -102.4325 257° West 440 506 34,000  Level Denver Center
Wed 02:29:12 PM 40.4453 -102.5814 257° West 439 505 34,000 -48 Level Denver Center
Wed 02:30:14 PM 40.4119 -102.7589 256° West 442 509 33,900 -484 Descending Denver Center
Wed 02:31:16 PM 40.3831 -102.9125 256° West 437 503 33,000 -1,452 Descending Denver Center
Wed 02:32:18 PM 40.3531 -103.0656 256° West 436 502 30,900 -2,081 Descending Denver Center
Wed 02:33:20 PM 40.3233 -103.2200 256° West 439 505 28,700 -2,226 Descending Denver Center
Wed 02:34:22 PM 40.2953 -103.3689 256° West 425 489 26,300 -2,488 Descending Denver Center
Wed 02:35:23 PM 40.2611 -103.5436 256° West 418 481 23,600 -2,293 Descending Denver Center
Wed 02:36:25 PM 40.2339 -103.6836 256° West 402 463 21,600 -1,984 Descending Denver Center
Wed 02:37:27 PM 40.2064 -103.8192 255° West 350 403 19,500 -1,839 Descending Denver Center
Wed 02:38:29 PM 40.2097 -103.9361 272° West 321 369 17,800 -1,839 Descending Denver Center
Wed 02:39:31 PM 40.2192 -104.0581 276° West 316 364 15,700 -1,694 Descending Denver Center
Wed 02:40:33 PM 40.2297 -104.1683 277° West 307 353 14,300 -1,258 Descending Denver Center
Wed 02:41:35 PM 40.2275 -104.2711 268° West 294 338 13,100 -1,161 Descending Denver Center
Wed 02:42:37 PM 40.2131 -104.3864 261° West 299 344 11,900 -1,268 Descending Denver Center
Wed 02:43:38 PM 40.1808 -104.4814 246° West 295 339 10,500 -1,420 Descending Denver Center
Wed 02:44:48 PM 40.1167 -104.5833 231° Southwest 273 314 8,800 -1,210 Descending Denver TRACON
Wed 02:45:42 PM 40.0719 -104.6264 216° Southwest 265 305 8,000 -672 Descending Denver Center
Wed 02:46:44 PM 40.0133 -104.6697 210° Southwest 245 282 7,500 -774 Descending Denver Center
Wed 02:47:46 PM 39.9547 -104.6861 192° South 192 221 6,400 -927 Descending Denver Center
Wed 02:48:47 PM 39.9100 -104.6867 181° South 164 189 5,600 -488 Descending Denver Center
Wed 02:49:49 PM 39.8772 -104.6867 180° South 124 143 5,400 -194 Descending Denver Center

Login

Don't have an account? Register now (free) for customized features, flight alerts, and more!